createdAt,value
2019-05-22T00:02:04.895Z,18.38
2019-05-22T00:04:40.441Z,18.37
2019-05-22T00:07:11.994Z,18.37
2019-05-22T00:09:45.082Z,18.40
2019-05-22T00:12:17.213Z,18.44
2019-05-22T00:14:50.220Z,18.38
2019-05-22T00:17:22.309Z,18.35
2019-05-22T00:19:52.918Z,18.32
2019-05-22T00:22:25.338Z,18.34
2019-05-22T00:24:57.638Z,18.32
2019-05-22T00:27:28.742Z,18.30
2019-05-22T00:30:01.710Z,18.27
2019-05-22T00:32:33.894Z,18.27
2019-05-22T00:35:06.511Z,18.23
2019-05-22T00:37:37.823Z,18.16
2019-05-22T00:40:09.557Z,18.08
2019-05-22T00:42:41.883Z,18.05
2019-05-22T00:45:14.811Z,18.00
2019-05-22T00:47:45.501Z,17.99
2019-05-22T00:50:21.875Z,17.98
2019-05-22T00:53:04.116Z,17.98
2019-05-22T00:55:48.879Z,17.99
2019-05-22T00:58:21.281Z,18.01
2019-05-22T01:00:54.331Z,18.04
2019-05-22T01:03:30.023Z,18.09
2019-05-22T01:06:01.737Z,18.11
2019-05-22T01:08:33.953Z,18.11
2019-05-22T01:11:06.899Z,18.12
2019-05-22T01:13:37.999Z,18.15
2019-05-22T01:16:10.468Z,18.17
2019-05-22T01:18:42.639Z,18.16
2019-05-22T01:21:14.865Z,18.22
2019-05-22T01:23:48.754Z,18.21
2019-05-22T01:26:20.510Z,18.17
2019-05-22T01:28:51.551Z,18.14
2019-05-22T01:31:29.870Z,18.14
2019-05-22T01:34:03.199Z,18.08
2019-05-22T01:36:35.342Z,18.04
2019-05-22T01:39:23.578Z,18.00
2019-05-22T01:41:57.450Z,17.96
2019-05-22T01:44:28.625Z,17.98
2019-05-22T01:47:00.711Z,17.99
2019-05-22T01:49:31.519Z,18.00
2019-05-22T01:52:03.277Z,18.07
2019-05-22T01:54:33.762Z,18.13
2019-05-22T01:57:06.978Z,18.19
2019-05-22T01:59:39.311Z,18.31
2019-05-22T02:02:10.082Z,18.44
2019-05-22T02:04:42.666Z,18.45
2019-05-22T02:07:13.314Z,18.47
2019-05-22T02:09:44.520Z,18.55
2019-05-22T02:12:17.684Z,18.54
2019-05-22T02:14:50.523Z,18.59
2019-05-22T02:17:22.601Z,18.48
2019-05-22T02:19:53.693Z,18.42
2019-05-22T02:22:26.983Z,18.61
2019-05-22T02:24:57.929Z,18.58
2019-05-22T02:27:30.272Z,18.67
2019-05-22T02:30:01.987Z,18.56
2019-05-22T02:32:34.443Z,18.53
2019-05-22T02:35:08.167Z,18.46
2019-05-22T02:37:39.692Z,18.58
2019-05-22T02:40:15.535Z,18.59
2019-05-22T02:42:46.859Z,18.76
2019-05-22T02:45:17.657Z,18.82
2019-05-22T02:47:49.317Z,18.79
2019-05-22T02:50:20.207Z,18.79
2019-05-22T02:52:50.646Z,18.87
2019-05-22T02:55:21.482Z,18.75
2019-05-22T02:57:52.732Z,18.77
2019-05-22T03:00:26.340Z,18.60
2019-05-22T03:02:57.586Z,18.63
2019-05-22T03:05:28.647Z,18.54
2019-05-22T03:07:59.667Z,18.43
2019-05-22T03:10:31.251Z,18.46
2019-05-22T03:13:02.932Z,18.40
2019-05-22T03:15:33.532Z,18.38
2019-05-22T03:18:05.568Z,18.33
2019-05-22T03:20:38.077Z,18.44
2019-05-22T03:23:13.270Z,18.47
2019-05-22T03:25:44.742Z,18.41
2019-05-22T03:28:15.593Z,18.39
2019-05-22T03:30:46.882Z,18.38
2019-05-22T03:33:17.961Z,18.42
2019-05-22T03:35:51.713Z,18.35
2019-05-22T03:38:23.434Z,18.48
2019-05-22T03:40:55.095Z,18.50
2019-05-22T03:43:28.364Z,18.52
2019-05-22T03:46:01.100Z,18.47
2019-05-22T03:48:33.708Z,18.54
2019-05-22T03:51:12.906Z,18.55
2019-05-22T03:53:44.114Z,18.64
2019-05-22T03:56:16.314Z,18.63
2019-05-22T03:58:47.395Z,18.71
2019-05-22T04:01:19.878Z,18.77
2019-05-22T04:03:50.696Z,18.72
2019-05-22T04:06:23.460Z,18.85
2019-05-22T04:08:54.511Z,18.94
2019-05-22T04:11:26.731Z,19.07
2019-05-22T04:13:58.752Z,19.17
2019-05-22T04:16:30.657Z,19.17
2019-05-22T04:19:01.191Z,19.22
2019-05-22T04:21:32.646Z,19.26
2019-05-22T04:24:03.529Z,19.14
2019-05-22T04:26:34.484Z,19.10
2019-05-22T04:29:05.364Z,19.14
2019-05-22T04:31:40.388Z,19.11
2019-05-22T04:34:11.733Z,19.21
2019-05-22T04:36:42.632Z,19.12
2019-05-22T04:39:20.630Z,19.20
2019-05-22T04:41:51.622Z,19.27
2019-05-22T04:44:22.855Z,19.24
2019-05-22T04:46:53.795Z,19.34
2019-05-22T04:49:24.741Z,19.45
2019-05-22T04:51:55.940Z,19.34
2019-05-22T04:54:26.513Z,19.45
2019-05-22T04:56:57.078Z,19.44
2019-05-22T04:59:27.631Z,19.38
2019-05-22T05:01:58.538Z,19.22
2019-05-22T05:04:30.362Z,19.15
2019-05-22T05:07:01.560Z,19.19
2019-05-22T05:09:32.238Z,19.24
2019-05-22T05:12:03.257Z,19.24
2019-05-22T05:14:34.115Z,19.24
2019-05-22T05:17:05.462Z,19.25
2019-05-22T05:19:36.302Z,19.24
2019-05-22T05:22:07.149Z,19.30
2019-05-22T05:24:37.664Z,19.35
2019-05-22T05:27:08.511Z,19.34
2019-05-22T05:29:39.328Z,19.33
2019-05-22T05:32:11.195Z,19.29
2019-05-22T05:34:46.284Z,19.17
2019-05-22T05:37:19.782Z,19.13
2019-05-22T05:39:51.759Z,19.25
2019-05-22T05:42:22.223Z,19.28
2019-05-22T05:44:52.963Z,19.23
2019-05-22T05:47:24.072Z,19.27
2019-05-22T05:49:55.018Z,19.33
2019-05-22T05:52:26.586Z,19.29
2019-05-22T05:54:58.157Z,19.33
2019-05-22T05:57:38.199Z,19.24
2019-05-22T06:00:24.703Z,19.22
2019-05-22T06:02:56.944Z,19.28
2019-05-22T06:05:27.860Z,19.21
2019-05-22T06:07:58.464Z,19.29
2019-05-22T06:10:31.690Z,19.48
2019-05-22T06:13:02.465Z,19.55
2019-05-22T06:15:47.277Z,19.56
2019-05-22T06:18:31.993Z,19.66
2019-05-22T06:21:04.739Z,19.85
2019-05-22T06:23:39.803Z,19.88
2019-05-22T06:26:12.445Z,19.99
2019-05-22T06:28:44.262Z,20.01
2019-05-22T06:31:33.614Z,20.04
2019-05-22T06:34:05.975Z,19.97
2019-05-22T06:36:37.020Z,20.04
2019-05-22T06:39:10.287Z,19.97
2019-05-22T06:41:42.482Z,19.99
2019-05-22T06:44:26.792Z,20.01
2019-05-22T06:46:58.235Z,19.91
2019-05-22T06:49:32.821Z,19.88
2019-05-22T06:52:04.752Z,19.88
2019-05-22T06:54:35.601Z,19.87
2019-05-22T06:57:08.195Z,19.79
2019-05-22T06:59:39.240Z,19.73
2019-05-22T07:02:10.556Z,19.71
2019-05-22T07:04:41.488Z,19.62
2019-05-22T07:07:14.031Z,19.57
2019-05-22T07:09:45.925Z,19.40
2019-05-22T07:12:18.345Z,19.40
2019-05-22T07:14:53.005Z,19.31
2019-05-22T07:17:25.610Z,19.24
2019-05-22T07:19:56.046Z,19.23
2019-05-22T07:22:27.200Z,19.23
2019-05-22T07:24:58.338Z,19.19
2019-05-22T07:27:30.242Z,19.16
2019-05-22T07:30:00.822Z,19.18
2019-05-22T07:32:31.784Z,19.24
2019-05-22T07:35:02.943Z,19.24
2019-05-22T07:37:35.652Z,19.21
2019-05-22T07:40:06.822Z,19.19
2019-05-22T07:42:39.712Z,19.24
2019-05-22T07:45:10.649Z,19.20
2019-05-22T07:47:43.021Z,19.23
2019-05-22T07:50:14.785Z,19.26
2019-05-22T07:52:45.411Z,19.34
2019-05-22T07:55:17.272Z,19.35
2019-05-22T07:57:49.649Z,19.38
2019-05-22T08:00:20.387Z,19.40
2019-05-22T08:02:51.238Z,19.29
2019-05-22T08:05:23.790Z,19.42
2019-05-22T08:07:54.920Z,19.44
2019-05-22T08:10:25.630Z,19.36
2019-05-22T08:12:57.007Z,19.37
2019-05-22T08:15:27.954Z,19.31
2019-05-22T08:17:58.482Z,19.27
2019-05-22T08:20:30.236Z,19.25
2019-05-22T08:23:00.672Z,19.19
2019-05-22T08:25:31.254Z,19.20
2019-05-22T08:28:02.134Z,19.11
2019-05-22T08:30:33.169Z,19.08
2019-05-22T08:33:05.404Z,19.11
2019-05-22T08:35:36.398Z,19.18
2019-05-22T08:38:08.546Z,18.91
2019-05-22T08:40:39.799Z,18.94
2019-05-22T08:43:10.728Z,18.83
2019-05-22T08:45:41.191Z,18.78
2019-05-22T08:48:13.636Z,18.78
2019-05-22T08:50:46.149Z,18.78
2019-05-22T08:53:18.886Z,18.73
2019-05-22T08:55:49.931Z,18.79
2019-05-22T08:58:21.175Z,18.71
2019-05-22T09:00:51.664Z,18.51
2019-05-22T09:03:22.638Z,18.47
2019-05-22T09:05:53.324Z,18.24
2019-05-22T09:08:24.501Z,17.86
2019-05-22T09:10:54.964Z,17.51
2019-05-22T09:13:25.679Z,17.34
2019-05-22T09:16:01.667Z,17.20
2019-05-22T09:18:31.257Z,17.12
2019-05-22T09:21:01.935Z,16.93
2019-05-22T09:23:34.127Z,16.79
2019-05-22T09:26:06.101Z,16.81
2019-05-22T09:28:37.725Z,16.73
2019-05-22T09:31:08.236Z,16.65
2019-05-22T09:33:38.705Z,16.71
2019-05-22T09:36:09.959Z,16.59
2019-05-22T09:38:40.517Z,16.59
2019-05-22T09:41:11.428Z,16.57
2019-05-22T09:43:42.031Z,16.63
2019-05-22T09:46:12.883Z,16.61
2019-05-22T09:48:43.627Z,16.69
2019-05-22T09:51:14.460Z,16.74
2019-05-22T09:53:45.129Z,16.78
2019-05-22T09:56:16.243Z,16.81
2019-05-22T09:58:47.378Z,16.67
2019-05-22T10:01:18.224Z,16.72
2019-05-22T10:03:48.939Z,16.79
2019-05-22T10:06:21.649Z,16.85
2019-05-22T10:08:52.563Z,16.91
2019-05-22T10:11:23.585Z,16.91
2019-05-22T10:13:54.381Z,16.97
2019-05-22T10:16:25.324Z,17.03
2019-05-22T10:18:56.662Z,17.06
2019-05-22T10:21:27.972Z,17.12
2019-05-22T10:23:58.712Z,17.13
2019-05-22T10:26:30.159Z,17.15
2019-05-22T10:29:01.096Z,17.17
2019-05-22T10:31:31.829Z,17.17
2019-05-22T10:34:03.491Z,17.19
2019-05-22T10:36:34.968Z,17.20
2019-05-22T10:39:06.700Z,17.07
2019-05-22T10:41:37.414Z,17.12
2019-05-22T10:44:08.226Z,17.10
2019-05-22T10:46:39.310Z,17.06
2019-05-22T10:49:09.846Z,17.07
2019-05-22T10:51:40.284Z,17.06
2019-05-22T10:54:11.196Z,17.07
2019-05-22T10:56:41.724Z,17.11
2019-05-22T10:59:12.731Z,17.20
2019-05-22T11:01:43.811Z,17.26
2019-05-22T11:04:19.378Z,17.27
2019-05-22T11:06:49.162Z,17.33
2019-05-22T11:09:20.615Z,17.32
2019-05-22T11:11:51.247Z,17.30
2019-05-22T11:14:21.913Z,17.30
2019-05-22T11:16:53.173Z,17.37
2019-05-22T11:19:24.991Z,17.38
2019-05-22T11:21:57.105Z,17.47
2019-05-22T11:24:28.819Z,17.51
2019-05-22T11:26:59.825Z,17.56
2019-05-22T11:29:30.894Z,17.59
2019-05-22T11:32:01.504Z,17.65
2019-05-22T11:34:32.475Z,17.71
2019-05-22T11:37:04.520Z,17.77
2019-05-22T11:39:40.229Z,17.80
2019-05-22T11:42:11.417Z,17.87
2019-05-22T11:44:42.123Z,17.95
2019-05-22T11:47:15.197Z,18.00
2019-05-22T11:49:45.672Z,18.00
2019-05-22T11:52:17.423Z,18.05
2019-05-22T11:54:48.254Z,18.02
2019-05-22T11:57:18.837Z,17.89
2019-05-22T11:59:50.034Z,17.83
2019-05-22T12:02:22.925Z,17.79
2019-05-22T12:04:54.149Z,17.79
2019-05-22T12:07:25.172Z,17.67
2019-05-22T12:09:56.040Z,17.64
2019-05-22T12:12:27.895Z,17.50
2019-05-22T12:14:59.412Z,17.44
2019-05-22T12:17:37.906Z,17.40
2019-05-22T12:20:03.358Z,17.30
2019-05-22T12:22:34.725Z,17.25
2019-05-22T12:25:05.454Z,17.26
2019-05-22T12:27:36.367Z,17.22
2019-05-22T12:30:07.957Z,17.27
2019-05-22T12:32:39.614Z,17.24
2019-05-22T12:35:11.924Z,17.23
2019-05-22T12:37:43.189Z,17.30
2019-05-22T12:40:15.997Z,17.29
2019-05-22T12:42:47.338Z,17.26
2019-05-22T12:45:19.829Z,17.27
2019-05-22T12:47:50.348Z,17.22
2019-05-22T12:50:22.570Z,17.14
2019-05-22T12:52:54.129Z,17.15
2019-05-22T12:55:25.468Z,17.11
2019-05-22T12:57:56.230Z,17.10
2019-05-22T13:00:27.509Z,17.15
2019-05-22T13:03:00.856Z,17.16
2019-05-22T13:05:34.837Z,17.18
2019-05-22T13:08:06.272Z,17.17
2019-05-22T13:10:37.194Z,17.20
2019-05-22T13:13:09.416Z,17.14
2019-05-22T13:15:40.813Z,17.14
2019-05-22T13:18:12.771Z,17.26
2019-05-22T13:20:45.091Z,17.14
2019-05-22T13:23:17.314Z,17.20
2019-05-22T13:25:48.439Z,17.23
2019-05-22T13:28:19.147Z,17.19
2019-05-22T13:30:51.527Z,17.16
2019-05-22T13:33:22.905Z,17.19
2019-05-22T13:35:54.360Z,17.16
2019-05-22T13:38:25.096Z,17.16
2019-05-22T13:40:55.834Z,17.24
2019-05-22T13:43:27.616Z,17.21
2019-05-22T13:45:58.321Z,17.25
2019-05-22T13:48:30.484Z,17.30
2019-05-22T13:51:01.727Z,17.30
2019-05-22T13:53:32.858Z,17.33
2019-05-22T13:56:03.748Z,17.31
2019-05-22T13:58:35.424Z,17.19
2019-05-22T14:01:07.511Z,17.15
2019-05-22T14:03:38.052Z,17.04
2019-05-22T14:06:09.506Z,17.07
2019-05-22T14:08:39.930Z,17.15
2019-05-22T14:11:11.149Z,17.30
2019-05-22T14:13:42.114Z,17.26
2019-05-22T14:16:13.045Z,17.25
2019-05-22T14:18:43.391Z,17.24
2019-05-22T14:21:14.014Z,17.29
2019-05-22T14:23:44.747Z,17.47
2019-05-22T14:26:15.689Z,17.47
2019-05-22T14:28:46.277Z,17.48
2019-05-22T14:31:17.337Z,17.52
2019-05-22T14:33:48.096Z,17.43
2019-05-22T14:36:19.218Z,17.50
2019-05-22T14:38:50.550Z,17.39
2019-05-22T14:41:21.366Z,17.32
2019-05-22T14:43:52.113Z,17.31
2019-05-22T14:46:22.964Z,17.28
2019-05-22T14:48:53.631Z,17.19
2019-05-22T14:51:24.683Z,17.21
2019-05-22T14:53:56.619Z,17.11
2019-05-22T14:56:27.219Z,17.22
2019-05-22T14:58:57.781Z,17.22
2019-05-22T15:01:31.204Z,17.08
2019-05-22T15:04:02.013Z,17.06
2019-05-22T15:06:32.745Z,17.08
2019-05-22T15:09:04.846Z,17.02
2019-05-22T15:11:35.773Z,16.89
2019-05-22T15:14:06.377Z,16.95
2019-05-22T15:16:36.945Z,16.98
2019-05-22T15:19:07.953Z,17.10
2019-05-22T15:21:38.577Z,17.02
2019-05-22T15:24:09.615Z,17.08
2019-05-22T15:26:40.463Z,16.94
2019-05-22T15:29:10.983Z,17.04
2019-05-22T15:31:41.815Z,17.02
2019-05-22T15:34:12.550Z,17.08
2019-05-22T15:36:43.389Z,17.22
2019-05-22T15:39:15.245Z,17.28
2019-05-22T15:41:46.630Z,17.34
2019-05-22T15:44:18.146Z,17.36
2019-05-22T15:46:49.697Z,17.36
2019-05-22T15:49:21.498Z,17.37
2019-05-22T15:51:52.198Z,17.52
2019-05-22T15:54:23.643Z,17.50
2019-05-22T15:56:55.198Z,17.50
2019-05-22T15:59:28.078Z,17.56
2019-05-22T16:01:59.789Z,17.59
2019-05-22T16:04:31.489Z,17.53
2019-05-22T16:07:03.069Z,17.53
2019-05-22T16:09:35.998Z,17.60
2019-05-22T16:12:06.555Z,17.62
2019-05-22T16:14:37.838Z,17.69
2019-05-22T16:17:08.752Z,17.68
2019-05-22T16:19:39.489Z,17.59
2019-05-22T16:22:10.397Z,17.47
2019-05-22T16:24:41.152Z,17.43
2019-05-22T16:27:13.072Z,17.46
2019-05-22T16:29:44.055Z,17.53
2019-05-22T16:32:17.620Z,17.50
2019-05-22T16:34:48.495Z,17.36
2019-05-22T16:37:19.082Z,17.44
2019-05-22T16:39:50.573Z,17.32
2019-05-22T16:42:21.963Z,17.41
2019-05-22T16:44:52.644Z,17.46
2019-05-22T16:47:24.307Z,17.44
2019-05-22T16:49:55.633Z,17.47
2019-05-22T16:52:28.461Z,17.50
2019-05-22T16:54:59.063Z,17.50
2019-05-22T16:57:30.822Z,17.33
2019-05-22T17:00:01.617Z,17.38
2019-05-22T17:02:33.676Z,17.40
2019-05-22T17:05:05.278Z,17.37
2019-05-22T17:07:35.912Z,17.34
2019-05-22T17:10:08.466Z,17.39
2019-05-22T17:12:40.953Z,17.31
2019-05-22T17:15:16.011Z,17.31
2019-05-22T17:17:47.090Z,17.28
2019-05-22T17:20:20.842Z,17.21
2019-05-22T17:22:51.877Z,17.14
2019-05-22T17:25:25.027Z,17.18
2019-05-22T17:27:57.417Z,17.13
2019-05-22T17:30:28.790Z,17.12
2019-05-22T17:32:59.890Z,17.10
2019-05-22T17:35:31.077Z,17.09
2019-05-22T17:38:02.335Z,17.09
2019-05-22T17:40:33.640Z,16.99
2019-05-22T17:43:04.496Z,16.97
2019-05-22T17:45:35.769Z,16.88
2019-05-22T17:48:06.923Z,16.84
2019-05-22T17:50:38.577Z,16.87
2019-05-22T17:53:09.639Z,16.82
2019-05-22T17:55:41.270Z,16.78
2019-05-22T17:58:12.215Z,16.64
2019-05-22T18:00:44.681Z,16.67
2019-05-22T18:03:17.062Z,16.76
2019-05-22T18:05:48.048Z,16.74
2019-05-22T18:08:19.432Z,16.76
2019-05-22T18:10:50.483Z,16.77
2019-05-22T18:13:22.505Z,16.77
2019-05-22T18:15:53.470Z,16.78
2019-05-22T18:18:24.569Z,16.82
2019-05-22T18:20:55.356Z,16.84
2019-05-22T18:23:27.217Z,16.81
2019-05-22T18:25:58.042Z,16.69
2019-05-22T18:28:29.657Z,16.75
2019-05-22T18:31:00.476Z,16.71
2019-05-22T18:33:31.167Z,16.68
2019-05-22T18:36:02.007Z,16.68
2019-05-22T18:38:32.951Z,16.69
2019-05-22T18:41:03.812Z,16.68
2019-05-22T18:43:34.714Z,16.61
2019-05-22T18:46:05.916Z,16.56
2019-05-22T18:48:36.611Z,16.53
2019-05-22T18:51:08.501Z,16.51
2019-05-22T18:53:40.339Z,16.53
2019-05-22T18:56:12.051Z,16.50
2019-05-22T18:58:43.458Z,16.61
2019-05-22T19:01:16.340Z,16.62
2019-05-22T19:03:47.720Z,16.65
2019-05-22T19:06:29.766Z,16.56
2019-05-22T19:08:51.639Z,16.32
2019-05-22T19:11:23.035Z,16.48
2019-05-22T19:13:53.985Z,16.55
2019-05-22T19:16:25.239Z,16.46
2019-05-22T19:18:57.447Z,16.41
2019-05-22T19:21:28.011Z,16.43
2019-05-22T19:23:59.181Z,16.28
2019-05-22T19:26:30.201Z,16.27
2019-05-22T19:29:00.926Z,16.25
2019-05-22T19:31:31.859Z,16.18
2019-05-22T19:34:03.015Z,16.12
2019-05-22T19:36:34.070Z,16.01
2019-05-22T19:39:06.061Z,16.00
2019-05-22T19:41:37.187Z,16.00
2019-05-22T19:44:07.946Z,15.93
2019-05-22T19:46:38.521Z,15.84
2019-05-22T19:49:09.598Z,15.79
2019-05-22T19:51:42.131Z,15.71
2019-05-22T19:54:13.039Z,15.73
2019-05-22T19:56:44.519Z,15.53
2019-05-22T19:59:15.353Z,15.65
2019-05-22T20:01:46.711Z,15.63
2019-05-22T20:04:17.642Z,15.60
2019-05-22T20:06:50.032Z,15.63
2019-05-22T20:09:21.178Z,15.63
2019-05-22T20:11:52.830Z,15.65
2019-05-22T20:14:25.157Z,15.70
2019-05-22T20:16:56.131Z,15.66
2019-05-22T20:19:26.854Z,15.58
2019-05-22T20:22:00.144Z,15.61
2019-05-22T20:24:30.580Z,15.59
2019-05-22T20:27:01.521Z,15.65
2019-05-22T20:29:32.754Z,15.57
2019-05-22T20:32:03.703Z,15.69
2019-05-22T20:34:34.426Z,15.67
2019-05-22T20:37:05.374Z,15.72
2019-05-22T20:39:36.719Z,15.70
2019-05-22T20:42:08.170Z,15.65
2019-05-22T20:44:39.412Z,15.72
2019-05-22T20:47:11.272Z,15.74
2019-05-22T20:49:43.787Z,15.66
2019-05-22T20:52:16.424Z,15.68
2019-05-22T20:54:47.368Z,15.61
2019-05-22T20:57:20.237Z,15.63
2019-05-22T20:59:51.901Z,15.66
2019-05-22T21:02:24.564Z,15.64
2019-05-22T21:04:57.100Z,15.73
2019-05-22T21:07:35.270Z,15.62
2019-05-22T21:10:07.883Z,15.73
2019-05-22T21:12:39.613Z,15.77
2019-05-22T21:15:10.376Z,15.82
2019-05-22T21:17:41.915Z,15.86
2019-05-22T21:20:14.978Z,15.88
2019-05-22T21:22:46.340Z,15.89
2019-05-22T21:25:17.358Z,15.88
2019-05-22T21:27:48.101Z,15.85
2019-05-22T21:30:21.623Z,15.88
2019-05-22T21:32:52.857Z,15.92
2019-05-22T21:35:24.550Z,15.80
2019-05-22T21:37:56.154Z,15.84
2019-05-22T21:40:27.289Z,15.86
2019-05-22T21:42:58.022Z,15.79
2019-05-22T21:45:29.472Z,15.84
2019-05-22T21:48:00.124Z,15.83
2019-05-22T21:50:32.309Z,15.78
2019-05-22T21:53:03.910Z,15.79
2019-05-22T21:55:35.610Z,15.78
2019-05-22T21:58:06.901Z,15.66
2019-05-22T22:00:40.955Z,15.79
2019-05-22T22:03:13.720Z,15.76
2019-05-22T22:05:46.123Z,15.82
2019-05-22T22:08:17.087Z,15.76
2019-05-22T22:10:48.300Z,15.80
2019-05-22T22:13:19.417Z,15.85
2019-05-22T22:15:50.983Z,15.79
2019-05-22T22:18:24.577Z,15.83
2019-05-22T22:20:55.287Z,15.80
2019-05-22T22:23:26.273Z,15.82
2019-05-22T22:25:57.079Z,15.87
2019-05-22T22:28:28.031Z,15.87
2019-05-22T22:31:01.006Z,15.90
2019-05-22T22:33:33.113Z,15.94
2019-05-22T22:36:06.084Z,15.97
2019-05-22T22:38:38.425Z,16.04
2019-05-22T22:41:10.493Z,16.08
2019-05-22T22:43:43.366Z,16.08
2019-05-22T22:46:48.314Z,16.08
2019-05-22T22:49:20.683Z,16.14
2019-05-22T22:51:53.668Z,16.14
2019-05-22T22:54:25.015Z,16.16
2019-05-22T22:56:55.958Z,16.15
2019-05-22T22:59:26.771Z,16.15
2019-05-22T23:01:59.722Z,16.15
2019-05-22T23:04:31.058Z,16.09
2019-05-22T23:07:03.494Z,16.10
2019-05-22T23:09:37.305Z,16.14
2019-05-22T23:12:10.090Z,16.15
2019-05-22T23:14:42.876Z,16.09
2019-05-22T23:17:13.907Z,16.08
2019-05-22T23:19:44.696Z,16.06
2019-05-22T23:22:20.082Z,16.11
2019-05-22T23:24:52.249Z,16.09
2019-05-22T23:27:23.699Z,16.05
2019-05-22T23:29:54.468Z,16.08
2019-05-22T23:32:25.173Z,16.09
2019-05-22T23:34:56.982Z,16.06
2019-05-22T23:37:27.969Z,16.06
2019-05-22T23:39:59.498Z,16.00
2019-05-22T23:42:31.886Z,15.99
2019-05-22T23:45:04.057Z,16.02
2019-05-22T23:47:37.451Z,15.99
2019-05-22T23:50:08.498Z,15.99
2019-05-22T23:52:39.965Z,15.91
2019-05-22T23:55:11.843Z,15.85
2019-05-22T23:57:43.772Z,15.81
